sensor_id;sensor_type;location;lat;lon;timestamp;pressure;altitude;pressure_sealevel;temperature;humidity
68141;BME280;54941;52.220;104.306;2023-03-01T00:00:20;96682.16;;;-9.50;74.64
68141;BME280;54941;52.220;104.306;2023-03-01T00:02:47;96671.84;;;-9.44;73.86
68141;BME280;54941;52.220;104.306;2023-03-01T00:05:13;96682.81;;;-9.31;73.47
68141;BME280;54941;52.220;104.306;2023-03-01T00:07:39;96681.72;;;-9.25;73.59
68141;BME280;54941;52.220;104.306;2023-03-01T00:10:06;96672.81;;;-9.14;73.11
68141;BME280;54941;52.220;104.306;2023-03-01T00:12:33;96670.97;;;-9.10;73.12
68141;BME280;54941;52.220;104.306;2023-03-01T00:14:59;96676.56;;;-9.05;72.67
68141;BME280;54941;52.220;104.306;2023-03-01T00:17:27;96675.47;;;-9.01;72.66
68141;BME280;54941;52.220;104.306;2023-03-01T00:19:54;96684.78;;;-8.88;72.13
68141;BME280;54941;52.220;104.306;2023-03-01T00:22:20;96682.84;;;-8.98;72.59
68141;BME280;54941;52.220;104.306;2023-03-01T00:24:49;96678.09;;;-8.87;72.08
68141;BME280;54941;52.220;104.306;2023-03-01T00:27:16;96674.25;;;-8.77;72.10
68141;BME280;54941;52.220;104.306;2023-03-01T00:29:42;96676.50;;;-8.72;71.27
68141;BME280;54941;52.220;104.306;2023-03-01T00:32:08;96664.88;;;-8.89;71.63
68141;BME280;54941;52.220;104.306;2023-03-01T00:34:36;96681.25;;;-8.83;71.26
68141;BME280;54941;52.220;104.306;2023-03-01T00:37:03;96669.97;;;-8.75;71.54
68141;BME280;54941;52.220;104.306;2023-03-01T00:39:29;96663.44;;;-8.77;70.95
68141;BME280;54941;52.220;104.306;2023-03-01T00:41:55;96658.94;;;-8.71;70.95
68141;BME280;54941;52.220;104.306;2023-03-01T00:44:22;96665.22;;;-8.64;70.41
68141;BME280;54941;52.220;104.306;2023-03-01T00:46:48;96659.25;;;-8.61;70.56
68141;BME280;54941;52.220;104.306;2023-03-01T00:49:15;96642.97;;;-8.53;69.95
68141;BME280;54941;52.220;104.306;2023-03-01T00:51:42;96651.31;;;-8.38;69.44
68141;BME280;54941;52.220;104.306;2023-03-01T00:54:09;96660.63;;;-8.40;68.95
68141;BME280;54941;52.220;104.306;2023-03-01T00:56:35;96655.84;;;-8.29;68.49
68141;BME280;54941;52.220;104.306;2023-03-01T00:59:02;96645.22;;;-8.18;68.01
68141;BME280;54941;52.220;104.306;2023-03-01T01:01:30;96651.91;;;-8.19;68.20
68141;BME280;54941;52.220;104.306;2023-03-01T01:03:57;96649.47;;;-8.05;67.64
68141;BME280;54941;52.220;104.306;2023-03-01T01:06:26;96648.72;;;-7.91;67.29
68141;BME280;54941;52.220;104.306;2023-03-01T01:08:55;96649.38;;;-7.73;66.77
68141;BME280;54941;52.220;104.306;2023-03-01T01:11:22;96642.16;;;-7.64;66.32
68141;BME280;54941;52.220;104.306;2023-03-01T01:13:49;96643.53;;;-7.44;65.73
68141;BME280;54941;52.220;104.306;2023-03-01T01:16:20;96637.88;;;-7.48;65.92
68141;BME280;54941;52.220;104.306;2023-03-01T01:18:47;96645.56;;;-7.22;65.45
68141;BME280;54941;52.220;104.306;2023-03-01T01:21:15;96638.94;;;-7.09;64.66
68141;BME280;54941;52.220;104.306;2023-03-01T01:23:43;96648.53;;;-7.16;64.77
68141;BME280;54941;52.220;104.306;2023-03-01T01:26:12;96637.84;;;-6.77;63.54
68141;BME280;54941;52.220;104.306;2023-03-01T01:28:39;96641.16;;;-6.76;63.69
68141;BME280;54941;52.220;104.306;2023-03-01T01:31:06;96639.19;;;-6.85;63.77
68141;BME280;54941;52.220;104.306;2023-03-01T01:33:32;96619.94;;;-6.71;62.84
68141;BME280;54941;52.220;104.306;2023-03-01T01:35:59;96626.84;;;-6.48;62.49
68141;BME280;54941;52.220;104.306;2023-03-01T01:38:25;96619.81;;;-6.16;61.93
68141;BME280;54941;52.220;104.306;2023-03-01T01:40:52;96624.91;;;-6.30;62.12
68141;BME280;54941;52.220;104.306;2023-03-01T01:43:22;96615.50;;;-6.53;62.53
68141;BME280;54941;52.220;104.306;2023-03-01T01:45:49;96614.47;;;-6.24;61.42
68141;BME280;54941;52.220;104.306;2023-03-01T01:48:20;96611.94;;;-6.10;61.40
68141;BME280;54941;52.220;104.306;2023-03-01T01:50:51;96610.81;;;-6.18;62.02
68141;BME280;54941;52.220;104.306;2023-03-01T01:53:22;96601.34;;;-5.88;61.79
68141;BME280;54941;52.220;104.306;2023-03-01T01:55:53;96594.63;;;-5.87;61.09
68141;BME280;54941;52.220;104.306;2023-03-01T01:58:22;96590.47;;;-5.51;60.18
68141;BME280;54941;52.220;104.306;2023-03-01T02:00:50;96594.88;;;-5.79;61.03
68141;BME280;54941;52.220;104.306;2023-03-01T02:03:18;96590.06;;;-5.82;60.97
68141;BME280;54941;52.220;104.306;2023-03-01T02:05:50;96593.19;;;-5.92;61.11
68141;BME280;54941;52.220;104.306;2023-03-01T02:08:20;96588.06;;;-5.77;60.95
68141;BME280;54941;52.220;104.306;2023-03-01T02:10:48;96584.81;;;-5.79;60.90
68141;BME280;54941;52.220;104.306;2023-03-01T02:13:15;96568.47;;;-5.72;61.29
68141;BME280;54941;52.220;104.306;2023-03-01T02:15:43;96572.81;;;-5.62;60.80
68141;BME280;54941;52.220;104.306;2023-03-01T02:18:12;96570.28;;;-5.49;60.28
68141;BME280;54941;52.220;104.306;2023-03-01T02:20:43;96565.94;;;-5.34;60.09
68141;BME280;54941;52.220;104.306;2023-03-01T02:23:10;96551.97;;;-5.26;59.88
68141;BME280;54941;52.220;104.306;2023-03-01T02:25:45;96549.53;;;-5.15;60.28
68141;BME280;54941;52.220;104.306;2023-03-01T02:28:25;96543.75;;;-5.53;60.49
68141;BME280;54941;52.220;104.306;2023-03-01T02:30:53;96543.72;;;-5.15;59.37
68141;BME280;54941;52.220;104.306;2023-03-01T02:33:19;96531.91;;;-5.02;59.13
68141;BME280;54941;52.220;104.306;2023-03-01T02:35:46;96532.47;;;-4.86;58.73
68141;BME280;54941;52.220;104.306;2023-03-01T02:38:12;96531.78;;;-4.29;58.04
68141;BME280;54941;52.220;104.306;2023-03-01T02:40:40;96524.06;;;-4.39;57.71
68141;BME280;54941;52.220;104.306;2023-03-01T02:43:08;96522.91;;;-4.11;57.01
68141;BME280;54941;52.220;104.306;2023-03-01T02:45:38;96520.28;;;-3.99;57.25
68141;BME280;54941;52.220;104.306;2023-03-01T02:48:09;96514.59;;;-4.01;56.78
68141;BME280;54941;52.220;104.306;2023-03-01T02:50:55;96509.91;;;-3.61;55.58
68141;BME280;54941;52.220;104.306;2023-03-01T02:53:33;96509.44;;;-3.21;55.30
68141;BME280;54941;52.220;104.306;2023-03-01T02:56:03;96499.81;;;-3.27;55.02
68141;BME280;54941;52.220;104.306;2023-03-01T02:58:30;96504.44;;;-2.89;54.41
68141;BME280;54941;52.220;104.306;2023-03-01T03:00:58;96501.63;;;-3.07;54.36
68141;BME280;54941;52.220;104.306;2023-03-01T03:03:24;96503.72;;;-2.80;54.64
68141;BME280;54941;52.220;104.306;2023-03-01T03:05:50;96496.16;;;-2.80;52.72
68141;BME280;54941;52.220;104.306;2023-03-01T03:08:17;96499.94;;;-2.75;54.29
68141;BME280;54941;52.220;104.306;2023-03-01T03:10:43;96482.31;;;-2.86;53.52
68141;BME280;54941;52.220;104.306;2023-03-01T03:13:11;96478.69;;;-2.20;52.15
68141;BME280;54941;52.220;104.306;2023-03-01T03:15:38;96468.09;;;-2.14;51.55
68141;BME280;54941;52.220;104.306;2023-03-01T03:18:08;96467.00;;;-2.00;52.24
68141;BME280;54941;52.220;104.306;2023-03-01T03:20:36;96468.59;;;-2.20;51.47
68141;BME280;54941;52.220;104.306;2023-03-01T03:23:03;96463.19;;;-2.57;51.91
68141;BME280;54941;52.220;104.306;2023-03-01T03:25:29;96454.19;;;-2.50;53.21
68141;BME280;54941;52.220;104.306;2023-03-01T03:27:56;96454.84;;;-2.89;53.34
68141;BME280;54941;52.220;104.306;2023-03-01T03:30:24;96455.84;;;-2.91;53.73
68141;BME280;54941;52.220;104.306;2023-03-01T03:32:51;96444.91;;;-2.49;52.93
68141;BME280;54941;52.220;104.306;2023-03-01T03:35:20;96444.91;;;-2.08;51.99
68141;BME280;54941;52.220;104.306;2023-03-01T03:37:47;96443.75;;;-2.45;52.86
68141;BME280;54941;52.220;104.306;2023-03-01T03:40:14;96441.97;;;-1.73;52.01
68141;BME280;54941;52.220;104.306;2023-03-01T03:42:40;96440.81;;;-1.10;49.72
68141;BME280;54941;52.220;104.306;2023-03-01T03:45:07;96422.31;;;-0.62;48.76
68141;BME280;54941;52.220;104.306;2023-03-01T03:47:34;96417.50;;;-0.46;47.85
68141;BME280;54941;52.220;104.306;2023-03-01T03:50:00;96434.16;;;-0.43;47.21
68141;BME280;54941;52.220;104.306;2023-03-01T03:52:28;96421.94;;;-0.67;48.45
68141;BME280;54941;52.220;104.306;2023-03-01T03:54:55;96423.38;;;0.65;46.08
68141;BME280;54941;52.220;104.306;2023-03-01T03:57:22;96424.53;;;-0.21;46.68
68141;BME280;54941;52.220;104.306;2023-03-01T03:59:48;96422.06;;;0.61;45.01
68141;BME280;54941;52.220;104.306;2023-03-01T04:02:14;96413.81;;;0.32;45.79
68141;BME280;54941;52.220;104.306;2023-03-01T04:04:41;96405.06;;;0.17;45.64
68141;BME280;54941;52.220;104.306;2023-03-01T04:07:07;96405.59;;;0.47;45.81
68141;BME280;54941;52.220;104.306;2023-03-01T04:09:35;96394.38;;;0.23;45.74
68141;BME280;54941;52.220;104.306;2023-03-01T04:12:02;96386.94;;;-0.16;47.08
68141;BME280;54941;52.220;104.306;2023-03-01T04:14:28;96373.75;;;-0.19;46.16
68141;BME280;54941;52.220;104.306;2023-03-01T04:16:54;96357.47;;;0.83;45.36
68141;BME280;54941;52.220;104.306;2023-03-01T04:19:21;96348.31;;;0.37;45.36
68141;BME280;54941;52.220;104.306;2023-03-01T04:21:47;96339.16;;;-0.01;46.20
68141;BME280;54941;52.220;104.306;2023-03-01T04:24:14;96347.31;;;0.83;44.79
68141;BME280;54941;52.220;104.306;2023-03-01T04:26:41;96342.50;;;1.15;44.07
68141;BME280;54941;52.220;104.306;2023-03-01T04:29:08;96344.47;;;0.86;44.98
68141;BME280;54941;52.220;104.306;2023-03-01T04:31:34;96332.00;;;0.75;45.31
68141;BME280;54941;52.220;104.306;2023-03-01T04:34:00;96332.00;;;1.10;43.73
68141;BME280;54941;52.220;104.306;2023-03-01T04:36:28;96320.16;;;1.19;44.01
68141;BME280;54941;52.220;104.306;2023-03-01T04:38:55;96318.44;;;1.45;42.72
68141;BME280;54941;52.220;104.306;2023-03-01T04:41:23;96320.22;;;1.27;43.79
68141;BME280;54941;52.220;104.306;2023-03-01T04:43:51;96310.78;;;1.71;42.17
68141;BME280;54941;52.220;104.306;2023-03-01T04:46:19;96313.81;;;1.74;41.82
68141;BME280;54941;52.220;104.306;2023-03-01T04:48:46;96300.09;;;1.59;41.92
68141;BME280;54941;52.220;104.306;2023-03-01T04:51:13;96301.75;;;1.42;43.19
68141;BME280;54941;52.220;104.306;2023-03-01T04:53:40;96304.72;;;1.64;42.76
68141;BME280;54941;52.220;104.306;2023-03-01T04:56:07;96295.25;;;1.14;43.88
68141;BME280;54941;52.220;104.306;2023-03-01T04:58:33;96297.56;;;1.08;44.02
68141;BME280;54941;52.220;104.306;2023-03-01T05:01:01;96296.97;;;1.14;44.64
68141;BME280;54941;52.220;104.306;2023-03-01T05:03:34;96277.84;;;0.58;45.04
68141;BME280;54941;52.220;104.306;2023-03-01T05:06:00;96266.84;;;1.44;43.69
68141;BME280;54941;52.220;104.306;2023-03-01T05:08:26;96272.41;;;1.14;44.03
68141;BME280;54941;52.220;104.306;2023-03-01T05:10:53;96252.53;;;1.35;43.41
68141;BME280;54941;52.220;104.306;2023-03-01T05:13:20;96245.31;;;0.97;44.20
68141;BME280;54941;52.220;104.306;2023-03-01T05:15:47;96226.31;;;1.01;43.97
68141;BME280;54941;52.220;104.306;2023-03-01T05:18:15;96215.06;;;1.29;43.01
68141;BME280;54941;52.220;104.306;2023-03-01T05:20:41;96214.53;;;1.18;44.02
68141;BME280;54941;52.220;104.306;2023-03-01T05:23:08;96201.69;;;0.93;43.35
68141;BME280;54941;52.220;104.306;2023-03-01T05:25:34;96205.25;;;1.09;43.62
68141;BME280;54941;52.220;104.306;2023-03-01T05:28:01;96195.34;;;1.23;42.85
68141;BME280;54941;52.220;104.306;2023-03-01T05:30:27;96191.53;;;0.93;43.60
68141;BME280;54941;52.220;104.306;2023-03-01T05:32:54;96175.63;;;1.43;42.80
68141;BME280;54941;52.220;104.306;2023-03-01T05:35:22;96158.22;;;1.14;43.38
68141;BME280;54941;52.220;104.306;2023-03-01T05:37:49;96157.81;;;0.75;44.15
68141;BME280;54941;52.220;104.306;2023-03-01T05:40:18;96166.63;;;0.89;43.87
68141;BME280;54941;52.220;104.306;2023-03-01T05:42:45;96173.47;;;0.96;44.41
68141;BME280;54941;52.220;104.306;2023-03-01T05:45:12;96165.97;;;1.55;43.49
68141;BME280;54941;52.220;104.306;2023-03-01T05:47:39;96169.66;;;1.26;44.71
68141;BME280;54941;52.220;104.306;2023-03-01T05:50:06;96159.44;;;1.52;43.79
68141;BME280;54941;52.220;104.306;2023-03-01T05:52:34;96165.28;;;2.19;41.89
68141;BME280;54941;52.220;104.306;2023-03-01T05:55:00;96155.13;;;1.94;42.13
68141;BME280;54941;52.220;104.306;2023-03-01T05:57:28;96147.28;;;1.72;42.99
68141;BME280;54941;52.220;104.306;2023-03-01T05:59:55;96134.16;;;1.84;42.75
68141;BME280;54941;52.220;104.306;2023-03-01T06:02:21;96123.34;;;2.23;41.62
68141;BME280;54941;52.220;104.306;2023-03-01T06:04:48;96124.47;;;2.28;41.84
68141;BME280;54941;52.220;104.306;2023-03-01T06:07:14;96121.63;;;1.99;42.71
68141;BME280;54941;52.220;104.306;2023-03-01T06:09:42;96110.63;;;1.90;42.34
68141;BME280;54941;52.220;104.306;2023-03-01T06:12:08;96105.31;;;1.43;43.89
68141;BME280;54941;52.220;104.306;2023-03-01T06:14:34;96113.72;;;1.52;43.98
68141;BME280;54941;52.220;104.306;2023-03-01T06:17:01;96101.75;;;1.20;44.68
68141;BME280;54941;52.220;104.306;2023-03-01T06:19:27;96104.81;;;1.32;44.39
68141;BME280;54941;52.220;104.306;2023-03-01T06:21:54;96101.00;;;0.94;44.99
68141;BME280;54941;52.220;104.306;2023-03-01T06:24:20;96102.50;;;1.13;44.42
68141;BME280;54941;52.220;104.306;2023-03-01T06:26:48;96099.00;;;1.48;44.07
68141;BME280;54941;52.220;104.306;2023-03-01T06:29:14;96090.97;;;1.18;44.71
68141;BME280;54941;52.220;104.306;2023-03-01T06:31:41;96086.66;;;1.69;44.06
68141;BME280;54941;52.220;104.306;2023-03-01T06:34:07;96087.91;;;1.73;43.72
68141;BME280;54941;52.220;104.306;2023-03-01T06:36:33;96078.88;;;1.78;44.10
68141;BME280;54941;52.220;104.306;2023-03-01T06:39:00;96065.31;;;1.45;43.80
68141;BME280;54941;52.220;104.306;2023-03-01T06:41:26;96074.09;;;1.67;43.60
68141;BME280;54941;52.220;104.306;2023-03-01T06:43:54;96071.50;;;1.35;44.41
68141;BME280;54941;52.220;104.306;2023-03-01T06:46:20;96065.63;;;1.34;44.95
68141;BME280;54941;52.220;104.306;2023-03-01T06:48:47;96057.66;;;1.21;44.57
68141;BME280;54941;52.220;104.306;2023-03-01T06:51:13;96049.13;;;1.38;44.41
68141;BME280;54941;52.220;104.306;2023-03-01T06:53:39;96060.13;;;1.55;43.63
68141;BME280;54941;52.220;104.306;2023-03-01T06:56:06;96049.91;;;1.31;44.17
68141;BME280;54941;52.220;104.306;2023-03-01T06:58:32;96041.88;;;0.93;44.68
68141;BME280;54941;52.220;104.306;2023-03-01T07:01:00;96052.59;;;1.21;44.64
68141;BME280;54941;52.220;104.306;2023-03-01T07:03:30;96055.44;;;1.26;45.01
68141;BME280;54941;52.220;104.306;2023-03-01T07:05:57;96050.56;;;1.41;44.61
68141;BME280;54941;52.220;104.306;2023-03-01T07:08:23;96028.00;;;1.30;44.32
68141;BME280;54941;52.220;104.306;2023-03-01T07:10:55;96045.16;;;1.36;45.00
68141;BME280;54941;52.220;104.306;2023-03-01T07:13:21;96052.38;;;1.15;44.53
68141;BME280;54941;52.220;104.306;2023-03-01T07:15:47;96040.09;;;0.86;44.88
68141;BME280;54941;52.220;104.306;2023-03-01T07:18:15;96048.75;;;1.09;45.17
68141;BME280;54941;52.220;104.306;2023-03-01T07:20:42;96024.44;;;0.98;44.56
68141;BME280;54941;52.220;104.306;2023-03-01T07:23:08;96030.63;;;1.04;44.58
68141;BME280;54941;52.220;104.306;2023-03-01T07:25:35;96044.28;;;1.11;44.57
68141;BME280;54941;52.220;104.306;2023-03-01T07:28:01;96021.78;;;1.16;43.94
68141;BME280;54941;52.220;104.306;2023-03-01T07:30:27;96038.78;;;1.24;43.95
68141;BME280;54941;52.220;104.306;2023-03-01T07:32:54;96040.88;;;1.36;43.99
68141;BME280;54941;52.220;104.306;2023-03-01T07:35:22;96032.59;;;1.26;44.08
68141;BME280;54941;52.220;104.306;2023-03-01T07:37:49;96042.13;;;1.40;44.13
68141;BME280;54941;52.220;104.306;2023-03-01T07:40:15;96051.69;;;1.46;43.45
68141;BME280;54941;52.220;104.306;2023-03-01T07:42:42;96044.06;;;1.46;43.68
68141;BME280;54941;52.220;104.306;2023-03-01T07:45:09;96044.06;;;1.63;44.10
68141;BME280;54941;52.220;104.306;2023-03-01T07:47:36;96045.97;;;1.53;44.24
68141;BME280;54941;52.220;104.306;2023-03-01T07:50:03;96046.94;;;1.43;44.44
68141;BME280;54941;52.220;104.306;2023-03-01T07:52:31;96043.13;;;1.56;43.92
68141;BME280;54941;52.220;104.306;2023-03-01T07:54:58;96033.59;;;1.41;43.39
68141;BME280;54941;52.220;104.306;2023-03-01T07:57:24;96033.72;;;1.24;43.91
68141;BME280;54941;52.220;104.306;2023-03-01T07:59:51;96042.28;;;1.31;44.28
68141;BME280;54941;52.220;104.306;2023-03-01T08:02:17;96041.69;;;1.53;43.76
68141;BME280;54941;52.220;104.306;2023-03-01T08:04:43;96051.50;;;1.32;43.47
68141;BME280;54941;52.220;104.306;2023-03-01T08:07:10;96044.16;;;1.13;44.84
68141;BME280;54941;52.220;104.306;2023-03-01T08:09:37;96045.63;;;1.31;43.61
68141;BME280;54941;52.220;104.306;2023-03-01T08:12:04;96035.91;;;1.19;43.67
68141;BME280;54941;52.220;104.306;2023-03-01T08:14:31;96043.31;;;1.04;43.49
68141;BME280;54941;52.220;104.306;2023-03-01T08:16:57;96041.28;;;1.08;43.00
68141;BME280;54941;52.220;104.306;2023-03-01T08:19:24;96042.53;;;0.95;43.77
68141;BME280;54941;52.220;104.306;2023-03-01T08:21:50;96054.38;;;0.87;44.15
68141;BME280;54941;52.220;104.306;2023-03-01T08:24:17;96050.13;;;0.95;44.36
68141;BME280;54941;52.220;104.306;2023-03-01T08:26:44;96046.63;;;0.96;44.08
68141;BME280;54941;52.220;104.306;2023-03-01T08:29:12;96042.31;;;0.81;44.10
68141;BME280;54941;52.220;104.306;2023-03-01T08:31:40;96050.84;;;0.80;44.14
68141;BME280;54941;52.220;104.306;2023-03-01T08:34:08;96051.78;;;0.79;44.33
68141;BME280;54941;52.220;104.306;2023-03-01T08:36:37;96060.59;;;0.67;45.53
68141;BME280;54941;52.220;104.306;2023-03-01T08:39:04;96059.00;;;0.91;44.68
68141;BME280;54941;52.220;104.306;2023-03-01T08:41:30;96065.47;;;0.86;44.68
68141;BME280;54941;52.220;104.306;2023-03-01T08:43:58;96067.47;;;0.74;44.15
68141;BME280;54941;52.220;104.306;2023-03-01T08:46:25;96065.31;;;0.54;44.02
68141;BME280;54941;52.220;104.306;2023-03-01T08:48:52;96060.72;;;0.57;44.07
68141;BME280;54941;52.220;104.306;2023-03-01T08:51:21;96057.16;;;0.42;44.22
68141;BME280;54941;52.220;104.306;2023-03-01T08:53:48;96066.72;;;0.48;44.72
68141;BME280;54941;52.220;104.306;2023-03-01T08:56:15;96060.97;;;0.46;44.45
68141;BME280;54941;52.220;104.306;2023-03-01T08:58:44;96055.31;;;0.52;44.69
68141;BME280;54941;52.220;104.306;2023-03-01T09:01:16;96055.16;;;0.54;44.75
68141;BME280;54941;52.220;104.306;2023-03-01T09:03:43;96060.69;;;0.49;44.06
68141;BME280;54941;52.220;104.306;2023-03-01T09:06:11;96069.69;;;0.43;44.65
68141;BME280;54941;52.220;104.306;2023-03-01T09:08:38;96068.16;;;0.51;44.60
68141;BME280;54941;52.220;104.306;2023-03-01T09:11:06;96059.63;;;0.34;44.86
68141;BME280;54941;52.220;104.306;2023-03-01T09:13:33;96064.31;;;0.46;44.07
68141;BME280;54941;52.220;104.306;2023-03-01T09:16:01;96062.78;;;0.54;44.23
68141;BME280;54941;52.220;104.306;2023-03-01T09:18:30;96075.75;;;0.51;44.19
68141;BME280;54941;52.220;104.306;2023-03-01T09:21:01;96079.28;;;0.58;43.99
68141;BME280;54941;52.220;104.306;2023-03-01T09:23:28;96077.63;;;0.48;44.56
68141;BME280;54941;52.220;104.306;2023-03-01T09:25:54;96078.28;;;0.51;44.43
68141;BME280;54941;52.220;104.306;2023-03-01T09:28:20;96088.81;;;0.64;44.19
68141;BME280;54941;52.220;104.306;2023-03-01T09:30:47;96081.38;;;0.62;45.07
68141;BME280;54941;52.220;104.306;2023-03-01T09:33:13;96089.91;;;0.61;44.89
68141;BME280;54941;52.220;104.306;2023-03-01T09:35:41;96100.66;;;0.55;44.90
68141;BME280;54941;52.220;104.306;2023-03-01T09:38:07;96096.66;;;0.53;45.25
68141;BME280;54941;52.220;104.306;2023-03-01T09:40:34;96100.66;;;0.55;44.59
68141;BME280;54941;52.220;104.306;2023-03-01T09:43:05;96109.00;;;0.47;45.34
68141;BME280;54941;52.220;104.306;2023-03-01T09:45:36;96111.53;;;0.47;44.79
68141;BME280;54941;52.220;104.306;2023-03-01T09:48:09;96118.34;;;0.47;45.21
68141;BME280;54941;52.220;104.306;2023-03-01T09:50:41;96126.34;;;0.86;43.50
68141;BME280;54941;52.220;104.306;2023-03-01T09:53:13;96109.81;;;0.82;43.23
68141;BME280;54941;52.220;104.306;2023-03-01T09:55:44;96095.16;;;0.68;43.79
68141;BME280;54941;52.220;104.306;2023-03-01T09:58:31;96099.75;;;0.38;44.95
68141;BME280;54941;52.220;104.306;2023-03-01T10:01:10;96090.03;;;0.26;46.15
68141;BME280;54941;52.220;104.306;2023-03-01T10:03:44;96101.41;;;0.30;46.09
68141;BME280;54941;52.220;104.306;2023-03-01T10:06:15;96092.50;;;0.43;45.69
68141;BME280;54941;52.220;104.306;2023-03-01T10:08:52;96095.78;;;0.36;46.43
68141;BME280;54941;52.220;104.306;2023-03-01T10:11:21;96094.69;;;0.38;45.90
68141;BME280;54941;52.220;104.306;2023-03-01T10:13:55;96097.09;;;0.22;45.53
68141;BME280;54941;52.220;104.306;2023-03-01T10:16:26;96100.22;;;0.16;45.07
68141;BME280;54941;52.220;104.306;2023-03-01T10:18:59;96109.34;;;0.09;45.69
68141;BME280;54941;52.220;104.306;2023-03-01T10:21:29;96114.34;;;0.01;47.14
68141;BME280;54941;52.220;104.306;2023-03-01T10:24:07;96109.16;;;0.03;46.35
68141;BME280;54941;52.220;104.306;2023-03-01T10:26:48;96112.13;;;-0.02;46.31
68141;BME280;54941;52.220;104.306;2023-03-01T10:29:15;96105.41;;;-0.11;46.55
68141;BME280;54941;52.220;104.306;2023-03-01T10:31:43;96107.41;;;-0.15;47.12
68141;BME280;54941;52.220;104.306;2023-03-01T10:34:12;96111.75;;;-0.25;46.68
68141;BME280;54941;52.220;104.306;2023-03-01T10:36:41;96108.28;;;-0.24;47.09
68141;BME280;54941;52.220;104.306;2023-03-01T10:39:14;96113.94;;;-0.30;47.59
68141;BME280;54941;52.220;104.306;2023-03-01T10:41:54;96114.38;;;-0.34;48.15
68141;BME280;54941;52.220;104.306;2023-03-01T10:44:39;96120.88;;;-0.32;47.73
68141;BME280;54941;52.220;104.306;2023-03-01T10:47:13;96111.69;;;-0.33;47.99
68141;BME280;54941;52.220;104.306;2023-03-01T10:49:52;96108.94;;;-0.39;47.23
68141;BME280;54941;52.220;104.306;2023-03-01T10:52:21;96115.59;;;-0.38;48.39
68141;BME280;54941;52.220;104.306;2023-03-01T10:54:53;96115.78;;;-0.50;48.63
68141;BME280;54941;52.220;104.306;2023-03-01T10:57:29;96121.66;;;-0.49;48.07
68141;BME280;54941;52.220;104.306;2023-03-01T11:00:17;96117.41;;;-0.48;47.84
68141;BME280;54941;52.220;104.306;2023-03-01T11:02:45;96120.38;;;-0.63;49.34
68141;BME280;54941;52.220;104.306;2023-03-01T11:05:22;96118.94;;;-0.65;49.98
68141;BME280;54941;52.220;104.306;2023-03-01T11:07:53;96122.00;;;-0.62;48.96
68141;BME280;54941;52.220;104.306;2023-03-01T11:10:21;96121.34;;;-0.64;49.12
68141;BME280;54941;52.220;104.306;2023-03-01T11:12:48;96132.84;;;-0.52;48.92
68141;BME280;54941;52.220;104.306;2023-03-01T11:15:25;96126.56;;;-0.47;48.58
68141;BME280;54941;52.220;104.306;2023-03-01T11:17:51;96125.63;;;-0.46;48.99
68141;BME280;54941;52.220;104.306;2023-03-01T11:20:26;96121.28;;;-0.54;48.13
68141;BME280;54941;52.220;104.306;2023-03-01T11:22:56;96129.03;;;-0.56;47.60
68141;BME280;54941;52.220;104.306;2023-03-01T11:25:26;96127.72;;;-0.60;48.37
68141;BME280;54941;52.220;104.306;2023-03-01T11:27:54;96133.50;;;-0.67;48.80
68141;BME280;54941;52.220;104.306;2023-03-01T11:30:24;96135.06;;;-0.66;48.27
68141;BME280;54941;52.220;104.306;2023-03-01T11:33:03;96132.97;;;-0.71;48.55
68141;BME280;54941;52.220;104.306;2023-03-01T11:35:30;96131.25;;;-0.70;48.98
68141;BME280;54941;52.220;104.306;2023-03-01T11:38:09;96128.16;;;-0.74;49.39
68141;BME280;54941;52.220;104.306;2023-03-01T11:40:45;96139.53;;;-0.78;49.56
68141;BME280;54941;52.220;104.306;2023-03-01T11:43:19;96135.13;;;-0.76;48.89
68141;BME280;54941;52.220;104.306;2023-03-01T11:45:59;96148.97;;;-0.80;48.81
68141;BME280;54941;52.220;104.306;2023-03-01T11:48:41;96141.50;;;-0.72;48.98
68141;BME280;54941;52.220;104.306;2023-03-01T11:51:18;96157.38;;;-0.79;48.68
68141;BME280;54941;52.220;104.306;2023-03-01T11:54:00;96158.31;;;-0.80;49.38
68141;BME280;54941;52.220;104.306;2023-03-01T11:56:34;96164.16;;;-0.80;48.78
68141;BME280;54941;52.220;104.306;2023-03-01T11:59:11;96159.00;;;-0.88;48.80
68141;BME280;54941;52.220;104.306;2023-03-01T12:01:55;96172.44;;;-0.87;49.26
68141;BME280;54941;52.220;104.306;2023-03-01T12:04:36;96178.81;;;-0.83;49.51
68141;BME280;54941;52.220;104.306;2023-03-01T12:07:10;96183.25;;;-0.85;49.26
68141;BME280;54941;52.220;104.306;2023-03-01T12:09:55;96185.59;;;-0.74;49.21
68141;BME280;54941;52.220;104.306;2023-03-01T12:12:34;96184.72;;;-0.65;48.99
68141;BME280;54941;52.220;104.306;2023-03-01T12:15:28;96202.22;;;-0.72;52.06
68141;BME280;54941;52.220;104.306;2023-03-01T12:18:13;96199.41;;;-0.69;53.76
68141;BME280;54941;52.220;104.306;2023-03-01T12:20:50;96197.44;;;-0.75;50.37
68141;BME280;54941;52.220;104.306;2023-03-01T12:23:39;96192.56;;;-0.95;49.94
68141;BME280;54941;52.220;104.306;2023-03-01T12:26:20;96186.09;;;-1.08;49.55
68141;BME280;54941;52.220;104.306;2023-03-01T12:28:56;96188.88;;;-1.11;50.90
68141;BME280;54941;52.220;104.306;2023-03-01T12:34:48;96193.97;;;-1.20;51.27
68141;BME280;54941;52.220;104.306;2023-03-01T12:37:25;96178.94;;;-1.22;51.28
68141;BME280;54941;52.220;104.306;2023-03-01T12:40:11;96209.31;;;-1.41;52.76
68141;BME280;54941;52.220;104.306;2023-03-01T12:42:48;96195.72;;;-1.40;52.84
68141;BME280;54941;52.220;104.306;2023-03-01T12:45:40;96204.00;;;-1.48;51.39
68141;BME280;54941;52.220;104.306;2023-03-01T12:48:27;96210.25;;;-1.61;51.70
68141;BME280;54941;52.220;104.306;2023-03-01T12:51:00;96195.78;;;-1.59;51.66
68141;BME280;54941;52.220;104.306;2023-03-01T12:53:30;96207.59;;;-1.69;51.61
68141;BME280;54941;52.220;104.306;2023-03-01T12:55:58;96194.19;;;-1.89;53.26
68141;BME280;54941;52.220;104.306;2023-03-01T12:58:32;96208.53;;;-1.89;53.06